LPPR/OPO METAR and TAF weather

Enter ICAO airport designator
Station Type Date Time Source
LPPR METAR 2019/05/25 09:30 UTC NOAA

LPPR 250930Z 04006KT 350V090 CAVOK 21/09 Q1022


Station Type Date Time Source
LPPR Decoded METAR 2019/05/25 09:30 UTC NOAA

Porto / Pedras Rubras, Portugal (LPPR) 41-14N 008-41W 77M
May 25, 2019 - 05:30 AM EDT / 2019.05.25 0930 UTC
Wind: from the NE (040 degrees) at 7 MPH (6 KT) (direction variable):0
Visibility: greater than 7 mile(s):0
Temperature: 69 F (21 C)
Dew Point: 48 F (9 C)
Relative Humidity: 46%
Pressure (altimeter): 30.18 in. Hg (1022 hPa)
ob: LPPR 250930Z 04006KT 350V090 CAVOK 21/09 Q1022
cycle: 9

Station Type Date Time Source
LPPR TAF 2019/05/25 06:18 UTC NOAA

TAF LPPR 250500Z 2506/2606 03007KT CAVOK
BECMG 2510/2513 33015KT
BECMG 2522/2524 36008KT
BECMG 2604/2606 03007KT

Example: see airport list